^^
Datos históricos de la estación: Murcia-Puente Tocinos
Diario Informe para Abril 21, 2019 Unidades:  Ambas    Ingés   Métrico
Diario Semanal Mensual Anual
  Máxima: Mínima: Promedio:
Temperatura: 58.3 °F /  14.6 °C 45.9 °F /  7.7 °C 51.6 °F /  10.9 °C
Punto de rocio: 36.5 °F /  2.5 °C 28.9 °F /  -1.7 °C 33.4 °F /  0.8 °C
Humedad: 64% 37% 51%
Velocidad viento: 13mph /  20.9km/h - 6.9mph /  11.1km/h
Racha viento: 23.5mph /  37.8km/h - -
Viento- - Oeste
Presión: 30.1 in /  1018.5 hPa 30 in /  1014.4 hPa -
Precipitación: 0 in /  0.0 mm    
 
 
Tabla de datos para Abril 21, 2019
Hora Temperatura Punto de rocio Presión Viento Velocidad viento Racha viento Humedad Intensidad lluvia(por hora) Nubes
00:04 51.6 °F /  10.9 °C 35.1 °F /  1.7 °C 30in /  1014.4hPa ONO 8.1mph /  13km/h 13.8mph /  22.2km/h 53% 0in /  0.0mm
00:09 51.8 °F /  11 °C 35.2 °F /  1.8 °C 30in /  1014.4hPa ONO 8.8mph /  14.1km/h 14mph /  22.5km/h 53.3% 0in /  0.0mm
00:14 51.8 °F /  11 °C 35.6 °F /  2 °C 30in /  1014.4hPa ONO 9.2mph /  14.8km/h 15mph /  24.1km/h 54% 0in /  0.0mm
00:19 52 °F /  11.1 °C 35.8 °F /  2.1 °C 30in /  1014.6hPa ONO 9.2mph /  14.8km/h 18.4mph /  29.6km/h 54% 0in /  0.0mm
00:24 52.2 °F /  11.2 °C 36 °F /  2.2 °C 30in /  1014.6hPa ONO 9.2mph /  14.8km/h 18.5mph /  29.8km/h 54% 0in /  0.0mm
00:29 52.2 °F /  11.2 °C 36 °F /  2.2 °C 30in /  1014.6hPa ONO 9.2mph /  14.8km/h 19mph /  30.6km/h 54% 0in /  0.0mm
00:34 52.2 °F /  11.2 °C 36 °F /  2.2 °C 30in /  1014.6hPa ONO 9.2mph /  14.8km/h 18mph /  29km/h 54% 0in /  0.0mm
00:39 52.2 °F /  11.2 °C 36 °F /  2.2 °C 30in /  1014.6hPa ONO 8.9mph /  14.3km/h 16mph /  25.7km/h 54% 0in /  0.0mm
00:44 52.2 °F /  11.2 °C 36.3 °F /  2.4 °C 30in /  1014.6hPa OSO 8.7mph /  14km/h 13mph /  20.9km/h 54.5% 0in /  0.0mm
00:49 52.2 °F /  11.2 °C 36.5 °F /  2.5 °C 30in /  1014.8hPa SO 6.6mph /  10.6km/h 9mph /  14.5km/h 55% 0in /  0.0mm
00:54 51.8 °F /  11 °C 36.1 °F /  2.3 °C 30in /  1014.8hPa SSO 5.2mph /  8.4km/h 7.4mph /  11.9km/h 55% 0in /  0.0mm
00:59 51.4 °F /  10.8 °C 36 °F /  2.2 °C 30in /  1014.8hPa Sur 4.8mph /  7.8km/h 8.1mph /  13km/h 55.2% 0in /  0.0mm
01:04 50.9 °F /  10.5 °C 35.8 °F /  2.1 °C 30in /  1014.9hPa SSE 4.7mph /  7.6km/h 9.2mph /  14.8km/h 56.1% 0in /  0.0mm
01:09 50.5 °F /  10.3 °C 35.8 °F /  2.1 °C 30in /  1014.9hPa Sur 5.5mph /  8.8km/h 9mph /  14.5km/h 57% 0in /  0.0mm
01:14 50.2 °F /  10.1 °C 36 °F /  2.2 °C 30in /  1014.9hPa SSE 5.9mph /  9.5km/h 10.4mph /  16.7km/h 58% 0in /  0.0mm
01:19 50.4 °F /  10.2 °C 36.1 °F /  2.3 °C 30in /  1014.9hPa SSE 5.5mph /  8.8km/h 10.7mph /  17.2km/h 58% 0in /  0.0mm
01:24 50.5 °F /  10.3 °C 36.3 °F /  2.4 °C 30in /  1014.9hPa SSE 5.2mph /  8.4km/h 11mph /  17.7km/h 58% 0in /  0.0mm
01:29 50.7 °F /  10.4 °C 36.5 °F /  2.5 °C 30in /  1014.9hPa Sur 5.7mph /  9.1km/h 10mph /  16.1km/h 58% 0in /  0.0mm
01:34 50.5 °F /  10.3 °C 36.3 °F /  2.4 °C 30in /  1014.9hPa SSE 5.9mph /  9.5km/h 7.4mph /  11.9km/h 58% 0in /  0.0mm
01:39 50.5 °F /  10.3 °C 36.3 °F /  2.4 °C 30in /  1014.8hPa ESE 4.7mph /  7.6km/h 7mph /  11.3km/h 58% 0in /  0.0mm
01:44 50.5 °F /  10.3 °C 36.3 °F /  2.4 °C 30in /  1014.8hPa SE 4mph /  6.5km/h 6mph /  9.7km/h 58% 0in /  0.0mm
01:49 50.5 °F /  10.3 °C 36.3 °F /  2.4 °C 30in /  1014.8hPa Sur 3.1mph /  5km/h 6.9mph /  11.1km/h 58% 0in /  0.0mm
01:54 50.4 °F /  10.2 °C 36.1 °F /  2.3 °C 30in /  1014.7hPa SO 2.4mph /  3.9km/h 8.1mph /  13km/h 58% 0in /  0.0mm
01:59 50.4 °F /  10.2 °C 36.1 °F /  2.3 °C 30in /  1014.7hPa SSO 4.2mph /  6.8km/h 8.5mph /  13.7km/h 58% 0in /  0.0mm
02:04 50.2 °F /  10.1 °C 36.1 °F /  2.3 °C 30in /  1014.9hPa Sur 5.2mph /  8.4km/h 9mph /  14.5km/h 58.3% 0in /  0.0mm
02:09 50.2 °F /  10.1 °C 36.3 °F /  2.4 °C 30in /  1014.9hPa Sur 5.3mph /  8.6km/h 9.2mph /  14.8km/h 58.9% 0in /  0.0mm
02:14 49.8 °F /  9.9 °C 36.1 °F /  2.3 °C 30in /  1014.9hPa SSE 5.4mph /  8.7km/h 9mph /  14.5km/h 59% 0in /  0.0mm
02:19 49.8 °F /  9.9 °C 36.1 °F /  2.3 °C 30in /  1015.1hPa SE 4.5mph /  7.3km/h 7.4mph /  11.9km/h 59% 0in /  0.0mm
02:24 49.6 °F /  9.8 °C 36 °F /  2.2 °C 30in /  1015.1hPa SSE 4mph /  6.5km/h 7.4mph /  11.9km/h 59% 0in /  0.0mm
02:29 49.6 °F /  9.8 °C 36 °F /  2.2 °C 30in /  1015.1hPa SE 4.4mph /  7.1km/h 8.1mph /  13km/h 59% 0in /  0.0mm
02:34 49.8 °F /  9.9 °C 36.1 °F /  2.3 °C 30in /  1015.2hPa SSO 4.7mph /  7.6km/h 8.1mph /  13km/h 59% 0in /  0.0mm
02:39 49.8 °F /  9.9 °C 36.1 °F /  2.3 °C 30in /  1015.2hPa SO 4mph /  6.5km/h 8mph /  12.9km/h 59% 0in /  0.0mm
02:44 49.8 °F /  9.9 °C 36.1 °F /  2.3 °C 30in /  1015.2hPa OSO 3.6mph /  5.8km/h 6.9mph /  11.1km/h 59% 0in /  0.0mm
02:49 49.8 °F /  9.9 °C 36.1 °F /  2.3 °C 30in /  1015.4hPa SO 3.3mph /  5.3km/h 7mph /  11.3km/h 59% 0in /  0.0mm
02:54 49.8 °F /  9.9 °C 36 °F /  2.2 °C 30in /  1015.4hPa SO 3.1mph /  5km/h 7mph /  11.3km/h 58.6% 0in /  0.0mm
02:59 50 °F /  10 °C 35.8 °F /  2.1 °C 30in /  1015.4hPa SO 3.4mph /  5.5km/h 7.4mph /  11.9km/h 58% 0in /  0.0mm
03:04 50 °F /  10 °C 35.8 °F /  2.1 °C 30in /  1015.5hPa SO 3.6mph /  5.8km/h 7mph /  11.3km/h 58% 0in /  0.0mm
03:09 50 °F /  10 °C 35.8 °F /  2.1 °C 30in /  1015.5hPa SO 3.9mph /  6.2km/h 6.9mph /  11.1km/h 58% 0in /  0.0mm
03:14 50 °F /  10 °C 35.6 °F /  2 °C 30in /  1015.5hPa OSO 4mph /  6.5km/h 7mph /  11.3km/h 57.6% 0in /  0.0mm
03:19 50.2 °F /  10.1 °C 35.4 °F /  1.9 °C 30in /  1015.6hPa OSO 4.2mph /  6.7km/h 9.7mph /  15.6km/h 57% 0in /  0.0mm
03:24 50 °F /  10 °C 35.2 °F /  1.8 °C 30in /  1015.6hPa Oeste 4.3mph /  6.9km/h 12.7mph /  20.4km/h 57% 0in /  0.0mm
03:29 49.8 °F /  9.9 °C 35.2 °F /  1.8 °C 30in /  1015.6hPa OSO 5.5mph /  8.9km/h 13mph /  20.9km/h 57% 0in /  0.0mm
03:34 49.8 °F /  9.9 °C 35.2 °F /  1.8 °C 30in /  1015.8hPa OSO 6.4mph /  10.3km/h 13.7mph /  22km/h 57% 0in /  0.0mm
03:39 49.8 °F /  9.9 °C 35.2 °F /  1.8 °C 30in /  1015.8hPa OSO 6.3mph /  10.1km/h 14mph /  22.5km/h 57% 0in /  0.0mm
03:44 49.6 °F /  9.8 °C 35.2 °F /  1.8 °C 30in /  1015.8hPa OSO 6.2mph /  10km/h 14mph /  22.5km/h 57.4% 0in /  0.0mm
03:49 49.6 °F /  9.8 °C 35.4 °F /  1.9 °C 30in /  1015.9hPa OSO 5.3mph /  8.6km/h 10mph /  16.1km/h 58% 0in /  0.0mm
03:54 49.5 °F /  9.7 °C 35.4 °F /  1.9 °C 30in /  1015.9hPa OSO 4.7mph /  7.6km/h 9mph /  14.5km/h 58% 0in /  0.0mm
03:59 49.5 °F /  9.7 °C 35.2 °F /  1.8 °C 30in /  1015.9hPa OSO 4mph /  6.4km/h 8.5mph /  13.7km/h 58% 0in /  0.0mm
04:04 49.5 °F /  9.7 °C 35.2 °F /  1.8 °C 30in /  1015.9hPa OSO 3.6mph /  5.8km/h 9mph /  14.5km/h 58% 0in /  0.0mm
04:09 49.6 °F /  9.8 °C 34.9 °F /  1.6 °C 30in /  1015.9hPa OSO 4mph /  6.5km/h 9.2mph /  14.8km/h 57% 0in /  0.0mm
04:14 49.6 °F /  9.8 °C 35.1 °F /  1.7 °C 30in /  1015.9hPa Oeste 4.3mph /  6.9km/h 9mph /  14.5km/h 57% 0in /  0.0mm
04:19 49.5 °F /  9.7 °C 35.1 °F /  1.7 °C 30in /  1015.9hPa Oeste 4.3mph /  6.9km/h 8.1mph /  13km/h 57.3% 0in /  0.0mm
04:24 49.3 °F /  9.6 °C 35.1 °F /  1.7 °C 30in /  1015.8hPa Oeste 4.3mph /  6.9km/h 12.7mph /  20.4km/h 58% 0in /  0.0mm
04:29 49.1 °F /  9.5 °C 34.9 °F /  1.6 °C 30in /  1015.8hPa Oeste 5.3mph /  8.5km/h 13mph /  20.9km/h 58% 0in /  0.0mm
04:34 48.9 °F /  9.4 °C 34.9 °F /  1.6 °C 30in /  1015.8hPa Oeste 5.9mph /  9.5km/h 12mph /  19.3km/h 58% 0in /  0.0mm
04:39 48.9 °F /  9.4 °C 34.9 °F /  1.6 °C 30in /  1015.7hPa Oeste 6.8mph /  11km/h 12.7mph /  20.4km/h 58.4% 0in /  0.0mm
04:44 48.7 °F /  9.3 °C 35.1 °F /  1.7 °C 30in /  1015.7hPa Oeste 7.4mph /  11.9km/h 13mph /  20.9km/h 59% 0in /  0.0mm
04:49 48.4 °F /  9.1 °C 35.1 °F /  1.7 °C 30in /  1015.7hPa Oeste 6.8mph /  10.9km/h 10.4mph /  16.7km/h 60% 0in /  0.0mm
04:54 48 °F /  8.9 °C 34.9 °F /  1.6 °C 30in /  1015.7hPa Oeste 6.4mph /  10.3km/h 10.4mph /  16.7km/h 60% 0in /  0.0mm
04:59 47.8 °F /  8.8 °C 35.1 °F /  1.7 °C 30in /  1015.7hPa OSO 5.8mph /  9.3km/h 10mph /  16.1km/h 60.8% 0in /  0.0mm
05:04 47.7 °F /  8.7 °C 34.9 °F /  1.6 °C 30in /  1015.7hPa Oeste 5.4mph /  8.7km/h 9.2mph /  14.8km/h 61% 0in /  0.0mm
05:09 47.7 °F /  8.7 °C 34.9 °F /  1.6 °C 30in /  1015.6hPa Oeste 5.7mph /  9.2km/h 10.4mph /  16.7km/h 61% 0in /  0.0mm
05:14 47.7 °F /  8.7 °C 34.9 °F /  1.6 °C 30in /  1015.6hPa Oeste 5.9mph /  9.5km/h 13mph /  20.9km/h 61% 0in /  0.0mm
05:19 47.8 °F /  8.8 °C 35.1 °F /  1.7 °C 30in /  1015.6hPa Oeste 6.2mph /  10km/h 13mph /  20.9km/h 61% 0in /  0.0mm
05:24 47.8 °F /  8.8 °C 35.1 °F /  1.7 °C 30in /  1015.6hPa OSO 6.4mph /  10.3km/h 11mph /  17.7km/h 61% 0in /  0.0mm
05:29 47.7 °F /  8.7 °C 34.9 °F /  1.6 °C 30in /  1015.6hPa OSO 6.1mph /  9.8km/h 9mph /  14.5km/h 61% 0in /  0.0mm
05:34 47.5 °F /  8.6 °C 34.9 °F /  1.6 °C 30in /  1015.8hPa OSO 5.9mph /  9.5km/h 9.2mph /  14.8km/h 61.5% 0in /  0.0mm
05:39 47.5 °F /  8.6 °C 35.1 °F /  1.7 °C 30in /  1015.8hPa OSO 5.2mph /  8.4km/h 9mph /  14.5km/h 62% 0in /  0.0mm
05:44 47.5 °F /  8.6 °C 35.1 °F /  1.7 °C 30in /  1015.8hPa OSO 4.7mph /  7.6km/h 9.2mph /  14.8km/h 62% 0in /  0.0mm
05:49 47.5 °F /  8.6 °C 35.1 °F /  1.7 °C 30in /  1015.8hPa OSO 4.3mph /  6.9km/h 9mph /  14.5km/h 62% 0in /  0.0mm
05:54 47.3 °F /  8.5 °C 34.9 °F /  1.6 °C 30in /  1015.8hPa OSO 4mph /  6.5km/h 9mph /  14.5km/h 62% 0in /  0.0mm
05:59 47.1 °F /  8.4 °C 34.9 °F /  1.6 °C 30in /  1015.8hPa Oeste 4mph /  6.5km/h 11.5mph /  18.5km/h 62% 0in /  0.0mm
06:04 47.1 °F /  8.4 °C 34.9 °F /  1.6 °C 30in /  1015.8hPa Oeste 4mph /  6.5km/h 13mph /  20.9km/h 62% 0in /  0.0mm
06:09 47.1 °F /  8.4 °C 34.9 °F /  1.6 °C 30in /  1015.8hPa Oeste 4.8mph /  7.8km/h 13mph /  20.9km/h 62% 0in /  0.0mm
06:14 47.1 °F /  8.4 °C 34.9 °F /  1.6 °C 30in /  1015.8hPa Oeste 5.4mph /  8.7km/h 13mph /  20.9km/h 62% 0in /  0.0mm
06:19 47.3 °F /  8.5 °C 34.9 °F /  1.6 °C 30in /  1015.8hPa Oeste 6.3mph /  10.2km/h 13.8mph /  22.2km/h 62% 0in /  0.0mm
06:24 47.5 °F /  8.6 °C 34.9 °F /  1.6 °C 30in /  1015.8hPa Oeste 6.9mph /  11.1km/h 14mph /  22.5km/h 61.6% 0in /  0.0mm
06:29 47.3 °F /  8.5 °C 34.9 °F /  1.6 °C 30in /  1015.8hPa Oeste 7.2mph /  11.6km/h 13mph /  20.9km/h 62% 0in /  0.0mm
06:34 47.1 °F /  8.4 °C 34.9 °F /  1.6 °C 30in /  1016.0hPa Oeste 7.4mph /  11.9km/h 15mph /  24.1km/h 62% 0in /  0.0mm
06:39 47.1 °F /  8.4 °C 34.9 °F /  1.6 °C 30in /  1016.0hPa Oeste 7.4mph /  11.9km/h 15mph /  24.1km/h 62% 0in /  0.0mm
06:44 47.1 °F /  8.4 °C 34.9 °F /  1.6 °C 30in /  1016.0hPa Oeste 7.4mph /  11.9km/h 15mph /  24.1km/h 62% 0in /  0.0mm
06:49 47.1 °F /  8.4 °C 34.7 °F /  1.5 °C 30in /  1016.1hPa Oeste 8mph /  12.9km/h 15mph /  24.1km/h 62% 0in /  0.0mm
06:54 46.9 °F /  8.3 °C 34.7 °F /  1.5 °C 30in /  1016.1hPa ONO 8.5mph /  13.7km/h 14mph /  22.5km/h 62% 0in /  0.0mm
06:59 46.9 °F /  8.3 °C 34.7 °F /  1.5 °C 30in /  1016.1hPa Oeste 7.9mph /  12.7km/h 14mph /  22.5km/h 62% 0in /  0.0mm
07:04 46.9 °F /  8.3 °C 34.7 °F /  1.5 °C 30in /  1016.3hPa Oeste 7.6mph /  12.2km/h 13.8mph /  22.2km/h 62% 0in /  0.0mm
07:09 46.9 °F /  8.3 °C 34.7 °F /  1.5 °C 30in /  1016.3hPa Oeste 7.2mph /  11.6km/h 14mph /  22.5km/h 62% 0in /  0.0mm
07:14 46.9 °F /  8.3 °C 34.5 °F /  1.4 °C 30in /  1016.3hPa OSO 6.9mph /  11.1km/h 12mph /  19.3km/h 62% 0in /  0.0mm
07:19 46.9 °F /  8.3 °C 34.7 °F /  1.5 °C 30in /  1016.5hPa SO 6.3mph /  10.1km/h 11mph /  17.7km/h 62% 0in /  0.0mm
07:24 46.9 °F /  8.3 °C 34.5 °F /  1.4 °C 30in /  1016.5hPa SO 5.9mph /  9.5km/h 9mph /  14.5km/h 62% 0in /  0.0mm
07:29 46.8 °F /  8.2 °C 34.5 °F /  1.4 °C 30in /  1016.5hPa Sur 4.2mph /  6.8km/h 7.4mph /  11.9km/h 62% 0in /  0.0mm
07:34 46.8 °F /  8.2 °C 34.5 °F /  1.4 °C 30in /  1016.7hPa SSO 3.1mph /  5km/h 7mph /  11.3km/h 62.2% 0in /  0.0mm
07:39 46.6 °F /  8.1 °C 34.7 °F /  1.5 °C 30in /  1016.7hPa SSE 3.1mph /  5km/h 5.9mph /  9.5km/h 63% 0in /  0.0mm
07:44 46.2 °F /  7.9 °C 34.5 °F /  1.4 °C 30in /  1016.7hPa SSO 3.1mph /  5km/h 7.4mph /  11.9km/h 63.4% 0in /  0.0mm
07:49 46 °F /  7.8 °C 34.5 °F /  1.4 °C 30in /  1016.7hPa OSO 3.4mph /  5.5km/h 9.7mph /  15.6km/h 64% 0in /  0.0mm
07:54 45.9 °F /  7.7 °C 34.5 °F /  1.4 °C 30in /  1016.7hPa OSO 3.6mph /  5.8km/h 15.6mph /  25.1km/h 64% 0in /  0.0mm
07:59 46 °F /  7.8 °C 34.3 °F /  1.3 °C 30in /  1016.7hPa OSO 5.3mph /  8.5km/h 16.3mph /  26.2km/h 63.3% 0in /  0.0mm
08:04 46.2 °F /  7.9 °C 34.3 °F /  1.3 °C 30in /  1016.7hPa Oeste 6.2mph /  10km/h 16mph /  25.7km/h 63% 0in /  0.0mm
08:09 46.2 °F /  7.9 °C 34.3 °F /  1.3 °C 30in /  1016.7hPa Oeste 6.3mph /  10.2km/h 13mph /  20.9km/h 63% 0in /  0.0mm
08:14 46.2 °F /  7.9 °C 34.3 °F /  1.3 °C 30in /  1016.7hPa Oeste 6.4mph /  10.3km/h 13mph /  20.9km/h 63% 0in /  0.0mm
08:19 46 °F /  7.8 °C 34.2 °F /  1.2 °C 30in /  1016.8hPa Oeste 6.3mph /  10.1km/h 13.8mph /  22.2km/h 63% 0in /  0.0mm
08:24 46 °F /  7.8 °C 34.2 °F /  1.2 °C 30in /  1016.8hPa Oeste 6.2mph /  10km/h 14mph /  22.5km/h 63% 0in /  0.0mm
08:29 46 °F /  7.8 °C 34.2 °F /  1.2 °C 30in /  1016.8hPa Oeste 6mph /  9.7km/h 13mph /  20.9km/h 63% 0in /  0.0mm
08:34 46 °F /  7.8 °C 34.2 °F /  1.2 °C 30in /  1017.2hPa OSO 5.9mph /  9.5km/h 10.7mph /  17.2km/h 63% 0in /  0.0mm
08:39 46.2 °F /  7.9 °C 34.3 °F /  1.3 °C 30in /  1017.2hPa SO 5.5mph /  8.8km/h 11mph /  17.7km/h 63% 0in /  0.0mm
08:44 46.2 °F /  7.9 °C 34.3 °F /  1.3 °C 30in /  1017.2hPa SO 5.2mph /  8.4km/h 11mph /  17.7km/h 63% 0in /  0.0mm
08:49 46.2 °F /  7.9 °C 34.3 °F /  1.3 °C 30in /  1017.3hPa SSO 5.2mph /  8.4km/h 9.2mph /  14.8km/h 63% 0in /  0.0mm
08:54 46.2 °F /  7.9 °C 34.3 °F /  1.3 °C 30in /  1017.3hPa SO 5.2mph /  8.4km/h 9mph /  14.5km/h 63% 0in /  0.0mm
08:59 46.2 °F /  7.9 °C 34.3 °F /  1.3 °C 30in /  1017.3hPa SO 4.4mph /  7.1km/h 8.1mph /  13km/h 63% 0in /  0.0mm
09:04 46.4 °F /  8 °C 34.5 °F /  1.4 °C 30in /  1017.4hPa OSO 4mph /  6.5km/h 10.4mph /  16.7km/h 63% 0in /  0.0mm
09:09 46.8 °F /  8.2 °C 34.7 °F /  1.5 °C 30in /  1017.4hPa OSO 4.4mph /  7.1km/h 10.7mph /  17.2km/h 62.6% 0in /  0.0mm
09:14 46.9 °F /  8.3 °C 34.5 °F /  1.4 °C 30in /  1017.4hPa Oeste 4.7mph /  7.6km/h 11.2mph /  18km/h 62% 0in /  0.0mm
09:19 47.1 °F /  8.4 °C 34.3 °F /  1.3 °C 30in /  1017.4hPa Oeste 5.7mph /  9.2km/h 12.7mph /  20.4km/h 61.1% 0in /  0.0mm
09:24 47.1 °F /  8.4 °C 34.3 °F /  1.3 °C 30in /  1017.4hPa Oeste 6.4mph /  10.3km/h 16.1mph /  25.9km/h 61% 0in /  0.0mm
09:29 47.3 °F /  8.5 °C 34.5 °F /  1.4 °C 30in /  1017.4hPa OSO 6.3mph /  10.1km/h 16mph /  25.7km/h 61% 0in /  0.0mm
09:34 47.5 °F /  8.6 °C 34.5 °F /  1.4 °C 30.1in /  1017.6hPa OSO 6.2mph /  10km/h 15mph /  24.1km/h 60.4% 0in /  0.0mm
09:39 47.7 °F /  8.7 °C 34.3 °F /  1.3 °C 30.1in /  1017.6hPa OSO 6.9mph /  11.1km/h 15.2mph /  24.5km/h 60% 0in /  0.0mm
09:44 47.7 °F /  8.7 °C 34.5 °F /  1.4 °C 30.1in /  1017.6hPa OSO 7.4mph /  11.9km/h 15mph /  24.1km/h 60% 0in /  0.0mm
09:49 47.8 °F /  8.8 °C 34.7 °F /  1.5 °C 30.1in /  1017.7hPa Oeste 6.8mph /  11km/h 14mph /  22.5km/h 59.9% 0in /  0.0mm
09:54 48 °F /  8.9 °C 34.3 °F /  1.3 °C 30.1in /  1017.7hPa Oeste 6.4mph /  10.3km/h 13mph /  20.9km/h 59% 0in /  0.0mm
09:59 48.4 °F /  9.1 °C 34.7 °F /  1.5 °C 30.1in /  1017.7hPa OSO 6.3mph /  10.1km/h 12mph /  19.3km/h 59% 0in /  0.0mm
10:04 48.6 °F /  9.2 °C 34.7 °F /  1.5 °C 30.1in /  1017.8hPa OSO 6.2mph /  10km/h 15mph /  24.1km/h 58.6% 0in /  0.0mm
10:09 48.7 °F /  9.3 °C 34.5 °F /  1.4 °C 30.1in /  1017.8hPa Oeste 6.6mph /  10.6km/h 15mph /  24.1km/h 58% 0in /  0.0mm
10:14 48.9 °F /  9.4 °C 34.7 °F /  1.5 °C 30.1in /  1017.8hPa Oeste 6.9mph /  11.1km/h 15mph /  24.1km/h 57.9% 0in /  0.0mm
10:19 49.3 °F /  9.6 °C 34.7 °F /  1.5 °C 30.1in /  1017.9hPa Oeste 7.3mph /  11.8km/h 15.2mph /  24.5km/h 57% 0in /  0.0mm
10:24 49.5 °F /  9.7 °C 34.5 °F /  1.4 °C 30.1in /  1017.9hPa Oeste 7.6mph /  12.2km/h 15mph /  24.1km/h 56.4% 0in /  0.0mm
10:29 49.5 °F /  9.7 °C 34.5 °F /  1.4 °C 30.1in /  1017.9hPa ONO 8.1mph /  13.1km/h 15mph /  24.1km/h 56% 0in /  0.0mm
10:34 49.6 °F /  9.8 °C 34.7 °F /  1.5 °C 30.1in /  1017.9hPa Oeste 8.5mph /  13.7km/h 14.5mph /  23.3km/h 56% 0in /  0.0mm
10:39 49.8 °F /  9.9 °C 34.5 °F /  1.4 °C 30.1in /  1017.9hPa ONO 7.3mph /  11.7km/h 20.4mph /  32.8km/h 55.5% 0in /  0.0mm
10:44 50.2 °F /  10.1 °C 34.7 °F /  1.5 °C 30.1in /  1017.9hPa ONO 6.4mph /  10.3km/h 21mph /  33.8km/h 55.2% 0in /  0.0mm
10:49 50.2 °F /  10.1 °C 34.5 °F /  1.4 °C 30.1in /  1017.9hPa ONO 8.1mph /  13km/h 22.5mph /  36.2km/h 54.9% 0in /  0.0mm
10:54 50.2 °F /  10.1 °C 34.5 °F /  1.4 °C 30.1in /  1017.9hPa Oeste 9.2mph /  14.8km/h 23mph /  37km/h 55% 0in /  0.0mm
10:59 50.4 °F /  10.2 °C 34.9 °F /  1.6 °C 30.1in /  1017.9hPa ONO 10.1mph /  16.3km/h 23mph /  37km/h 55% 0in /  0.0mm
11:04 50.7 °F /  10.4 °C 35.1 °F /  1.7 °C 30.1in /  1018.2hPa ONO 10.7mph /  17.2km/h 14mph /  22.5km/h 55% 0in /  0.0mm
11:09 50.9 °F /  10.5 °C 34.9 °F /  1.6 °C 30.1in /  1018.2hPa ONO 8.4mph /  13.5km/h 19.7mph /  31.7km/h 54.1% 0in /  0.0mm
11:14 50.7 °F /  10.4 °C 34.7 °F /  1.5 °C 30.1in /  1018.2hPa ONO 6.9mph /  11.1km/h 20mph /  32.2km/h 54% 0in /  0.0mm
11:19 50.9 °F /  10.5 °C 34.9 °F /  1.6 °C 30.1in /  1018.2hPa ONO 9.1mph /  14.6km/h 17.5mph /  28.2km/h 54% 0in /  0.0mm
11:24 51.1 °F /  10.6 °C 34.7 °F /  1.5 °C 30.1in /  1018.2hPa ONO 10.7mph /  17.2km/h 18.1mph /  29.1km/h 53.5% 0in /  0.0mm
11:29 51.3 °F /  10.7 °C 34.9 °F /  1.6 °C 30.1in /  1018.2hPa Oeste 10.3mph /  16.6km/h 18mph /  29km/h 53.3% 0in /  0.0mm
11:34 51.4 °F /  10.8 °C 34.9 °F /  1.6 °C 30.1in /  1018.2hPa Oeste 10mph /  16.1km/h 15mph /  24.1km/h 53% 0in /  0.0mm
11:39 52 °F /  11.1 °C 35.1 °F /  1.7 °C 30.1in /  1018.2hPa Oeste 8.9mph /  14.3km/h 15mph /  24.1km/h 52.3% 0in /  0.0mm
11:44 52.2 °F /  11.2 °C 34.9 °F /  1.6 °C 30.1in /  1018.2hPa ONO 8.1mph /  13km/h 17.8mph /  28.6km/h 51.5% 0in /  0.0mm
11:49 52.3 °F /  11.3 °C 35.1 °F /  1.7 °C 30.1in /  1018.2hPa ONO 9.7mph /  15.6km/h 18mph /  29km/h 51.8% 0in /  0.0mm
11:54 52.3 °F /  11.3 °C 34.7 °F /  1.5 °C 30.1in /  1018.2hPa ONO 10.7mph /  17.2km/h 16mph /  25.7km/h 51% 0in /  0.0mm
11:59 52.5 °F /  11.4 °C 34.9 °F /  1.6 °C 30.1in /  1018.2hPa ONO 10mph /  16.1km/h 19.2mph /  30.9km/h 50.8% 0in /  0.0mm
12:04 52.5 °F /  11.4 °C 34.9 °F /  1.6 °C 30.1in /  1018.2hPa ONO 9.7mph /  15.6km/h 20mph /  32.2km/h 51% 0in /  0.0mm
12:09 52.5 °F /  11.4 °C 34.7 °F /  1.5 °C 30.1in /  1018.1hPa ONO 11.6mph /  18.7km/h 20mph /  32.2km/h 50.6% 0in /  0.0mm
12:14 53.1 °F /  11.7 °C 35.1 °F /  1.7 °C 30.1in /  1018.1hPa ONO 13mph /  20.9km/h 20mph /  32.2km/h 50.5% 0in /  0.0mm
12:19 53.4 °F /  11.9 °C 35.2 °F /  1.8 °C 30.1in /  1018.1hPa ONO 10.3mph /  16.6km/h 16.1mph /  25.9km/h 50% 0in /  0.0mm
12:24 53.6 °F /  12 °C 34.9 °F /  1.6 °C 30.1in /  1018.0hPa ONO 8.5mph /  13.7km/h 17.3mph /  27.8km/h 48.7% 0in /  0.0mm
12:29 53.8 °F /  12.1 °C 34.5 °F /  1.4 °C 30.1in /  1018.0hPa ONO 9.5mph /  15.3km/h 17.3mph /  27.8km/h 48.1% 0in /  0.0mm
12:34 54.1 °F /  12.3 °C 34.5 °F /  1.4 °C 30.1in /  1018.0hPa ONO 10.2mph /  16.4km/h 17mph /  27.4km/h 47.5% 0in /  0.0mm
12:39 54.1 °F /  12.3 °C 34.5 °F /  1.4 °C 30.1in /  1017.8hPa ONO 9.6mph /  15.5km/h 17mph /  27.4km/h 47.3% 0in /  0.0mm
12:44 54.3 °F /  12.4 °C 34.5 °F /  1.4 °C 30.1in /  1017.8hPa Oeste 9.2mph /  14.8km/h 17.3mph /  27.8km/h 46.7% 0in /  0.0mm
12:49 54.7 °F /  12.6 °C 34.7 °F /  1.5 °C 30.1in /  1017.8hPa Oeste 9.2mph /  14.8km/h 17mph /  27.4km/h 46.8% 0in /  0.0mm
12:54 54.9 °F /  12.7 °C 34.5 °F /  1.4 °C 30.1in /  1017.5hPa ONO 9.2mph /  14.8km/h 16mph /  25.7km/h 46.2% 0in /  0.0mm
12:59 55.2 °F /  12.9 °C 34.3 °F /  1.3 °C 30.1in /  1017.5hPa ONO 7.7mph /  12.4km/h 15mph /  24.1km/h 45.3% 0in /  0.0mm
13:04 55 °F /  12.8 °C 33.8 °F /  1 °C 30.1in /  1017.5hPa ONO 6.9mph /  11.1km/h 17.3mph /  27.8km/h 44.3% 0in /  0.0mm
13:09 55.2 °F /  12.9 °C 34.2 °F /  1.2 °C 30in /  1017.3hPa ONO 8.8mph /  14.2km/h 17.3mph /  27.8km/h 44.8% 0in /  0.0mm
13:14 55.4 °F /  13 °C 34.2 °F /  1.2 °C 30in /  1017.3hPa Oeste 10.2mph /  16.4km/h 17.3mph /  27.8km/h 44.4% 0in /  0.0mm
13:19 55.8 °F /  13.2 °C 34.2 °F /  1.2 °C 30in /  1017.3hPa ONO 9.3mph /  15km/h 17mph /  27.4km/h 43.8% 0in /  0.0mm
13:24 55.9 °F /  13.3 °C 33.4 °F /  0.8 °C 30in /  1017.1hPa ONO 8.7mph /  14km/h 17.8mph /  28.6km/h 42.7% 0in /  0.0mm
13:29 55.8 °F /  13.2 °C 33.6 °F /  0.9 °C 30in /  1017.1hPa ONO 9.9mph /  15.9km/h 18.4mph /  29.6km/h 42.9% 0in /  0.0mm
13:34 55.8 °F /  13.2 °C 33.6 °F /  0.9 °C 30in /  1017.1hPa ONO 10.7mph /  17.2km/h 18.5mph /  29.8km/h 43% 0in /  0.0mm
13:39 56.1 °F /  13.4 °C 33.6 °F /  0.9 °C 30in /  1016.9hPa ONO 10.3mph /  16.5km/h 19mph /  30.6km/h 42.5% 0in /  0.0mm
13:44 56.3 °F /  13.5 °C 33.1 °F /  0.6 °C 30in /  1016.9hPa ONO 10mph /  16.1km/h 17mph /  27.4km/h 41.5% 0in /  0.0mm
13:49 56.3 °F /  13.5 °C 33.1 °F /  0.6 °C 30in /  1016.9hPa Oeste 9.3mph /  14.9km/h 17.3mph /  27.8km/h 41.4% 0in /  0.0mm
13:54 56.5 °F /  13.6 °C 33.1 °F /  0.6 °C 30in /  1016.7hPa NO 8.7mph /  14km/h 17mph /  27.4km/h 41.1% 0in /  0.0mm
13:59 56.7 °F /  13.7 °C 33.1 °F /  0.6 °C 30in /  1016.7hPa NO 8.6mph /  13.8km/h 15mph /  24.1km/h 40.8% 0in /  0.0mm
14:04 56.7 °F /  13.7 °C 32.9 °F /  0.5 °C 30in /  1016.7hPa NO 8.5mph /  13.7km/h 14.7mph /  23.7km/h 40.5% 0in /  0.0mm
14:09 56.8 °F /  13.8 °C 32.7 °F /  0.4 °C 30in /  1016.6hPa NO 8.3mph /  13.3km/h 15.2mph /  24.5km/h 39.9% 0in /  0.0mm
14:14 56.8 °F /  13.8 °C 32.9 °F /  0.5 °C 30in /  1016.6hPa ONO 8.1mph /  13km/h 16.3mph /  26.2km/h 40% 0in /  0.0mm
14:19 56.8 °F /  13.8 °C 33.1 °F /  0.6 °C 30in /  1016.6hPa ONO 8.4mph /  13.6km/h 17mph /  27.4km/h 40.4% 0in /  0.0mm
14:24 57 °F /  13.9 °C 32.9 °F /  0.5 °C 30in /  1016.5hPa Oeste 8.7mph /  14km/h 18.5mph /  29.8km/h 40% 0in /  0.0mm
14:29 57 °F /  13.9 °C 32.9 °F /  0.5 °C 30in /  1016.5hPa ONO 9.9mph /  16km/h 19mph /  30.6km/h 39.9% 0in /  0.0mm
14:34 57.2 °F /  14 °C 33.1 °F /  0.6 °C 30in /  1016.5hPa ONO 10.7mph /  17.2km/h 19.6mph /  31.5km/h 40% 0in /  0.0mm
14:39 57.4 °F /  14.1 °C 33.1 °F /  0.6 °C 30in /  1016.3hPa NO 10.4mph /  16.8km/h 20mph /  32.2km/h 39.7% 0in /  0.0mm
14:44 57.6 °F /  14.2 °C 32.9 °F /  0.5 °C 30in /  1016.3hPa ONO 10.2mph /  16.4km/h 15mph /  24.1km/h 39% 0in /  0.0mm
14:49 57.6 °F /  14.2 °C 32.7 °F /  0.4 °C 30in /  1016.3hPa ONO 9.3mph /  15km/h 15mph /  24.1km/h 39% 0in /  0.0mm
14:54 57.6 °F /  14.2 °C 32.7 °F /  0.4 °C 30in /  1016.2hPa NNO 8.7mph /  14km/h 13mph /  20.9km/h 38.9% 0in /  0.0mm
14:59 57.6 °F /  14.2 °C 32.7 °F /  0.4 °C 30in /  1016.2hPa NNO 7.5mph /  12.1km/h 13mph /  20.9km/h 39% 0in /  0.0mm
15:04 57.7 °F /  14.3 °C 32.7 °F /  0.4 °C 30in /  1016.2hPa ONO 6.9mph /  11.1km/h 17.3mph /  27.8km/h 38.8% 0in /  0.0mm
15:09 57.9 °F /  14.4 °C 32.4 °F /  0.2 °C 30in /  1016.2hPa ONO 7.2mph /  11.6km/h 17mph /  27.4km/h 38% 0in /  0.0mm
15:14 57.9 °F /  14.4 °C 32.5 °F /  0.3 °C 30in /  1016.2hPa ONO 7.4mph /  11.9km/h 15.2mph /  24.5km/h 38.2% 0in /  0.0mm
15:19 57.7 °F /  14.3 °C 32.4 °F /  0.2 °C 30in /  1016.2hPa Oeste 7.5mph /  12.1km/h 15mph /  24.1km/h 38% 0in /  0.0mm
15:24 57.9 °F /  14.4 °C 32 °F /  0 °C 30in /  1016.1hPa Oeste 7.6mph /  12.2km/h 23.5mph /  37.8km/h 37.4% 0in /  0.0mm
15:29 57.9 °F /  14.4 °C 31.8 °F /  -0.1 °C 30in /  1016.1hPa ONO 9.5mph /  15.3km/h 23mph /  37km/h 37% 0in /  0.0mm
15:34 57.9 °F /  14.4 °C 32.2 °F /  0.1 °C 30in /  1016.1hPa ONO 10.7mph /  17.2km/h 21.3mph /  34.3km/h 37.5% 0in /  0.0mm
15:39 58.3 °F /  14.6 °C 32 °F /  0 °C 30in /  1016.1hPa ONO 10.7mph /  17.2km/h 23mph /  37km/h 37.1% 0in /  0.0mm
15:44 58.3 °F /  14.6 °C 32.2 °F /  0.1 °C 30in /  1016.1hPa ONO 10.7mph /  17.2km/h 23mph /  37km/h 37% 0in /  0.0mm
15:49 58.3 °F /  14.6 °C 32.2 °F /  0.1 °C 30in /  1016.2hPa NO 11mph /  17.7km/h 21.3mph /  34.3km/h 37% 0in /  0.0mm
15:54 57.9 °F /  14.4 °C 31.8 °F /  -0.1 °C 30in /  1016.2hPa NO 11.2mph /  18km/h 21.3mph /  34.3km/h 37% 0in /  0.0mm
15:59 57.9 °F /  14.4 °C 31.8 °F /  -0.1 °C 30in /  1016.2hPa NO 11.9mph /  19.2km/h 21mph /  33.8km/h 37% 0in /  0.0mm
16:04 57.9 °F /  14.4 °C 31.8 °F /  -0.1 °C 30in /  1016.2hPa ONO 12.3mph /  19.8km/h 20mph /  32.2km/h 37% 0in /  0.0mm
16:09 57.9 °F /  14.4 °C 31.8 °F /  -0.1 °C 30in /  1016.2hPa ONO 11.7mph /  18.9km/h 17.8mph /  28.6km/h 37% 0in /  0.0mm
16:14 57.9 °F /  14.4 °C 32 °F /  0 °C 30in /  1016.2hPa ONO 11.4mph /  18.4km/h 20.7mph /  33.3km/h 37.4% 0in /  0.0mm
16:19 57.9 °F /  14.4 °C 32.4 °F /  0.2 °C 30in /  1016.2hPa ONO 11.3mph /  18.2km/h 21mph /  33.8km/h 38% 0in /  0.0mm
16:24 57.7 °F /  14.3 °C 32.4 °F /  0.2 °C 30in /  1016.2hPa ONO 11.2mph /  18km/h 20.7mph /  33.3km/h 38% 0in /  0.0mm
16:29 57.7 °F /  14.3 °C 32.4 °F /  0.2 °C 30in /  1016.2hPa ONO 10.6mph /  17.1km/h 21mph /  33.8km/h 38% 0in /  0.0mm
16:34 57.9 °F /  14.4 °C 32.2 °F /  0.1 °C 30in /  1016.2hPa ONO 10.2mph /  16.4km/h 20.8mph /  33.5km/h 37.8% 0in /  0.0mm
16:39 57.9 °F /  14.4 °C 32.4 °F /  0.2 °C 30in /  1016.2hPa ONO 10.8mph /  17.4km/h 21mph /  33.8km/h 37.9% 0in /  0.0mm
16:44 57.7 °F /  14.3 °C 31.8 °F /  -0.1 °C 30in /  1016.2hPa NO 11.2mph /  18km/h 19mph /  30.6km/h 37.1% 0in /  0.0mm
16:49 57.6 °F /  14.2 °C 31.6 °F /  -0.2 °C 30in /  1016.2hPa ONO 11.6mph /  18.6km/h 21.3mph /  34.3km/h 37.2% 0in /  0.0mm
16:54 57.6 °F /  14.2 °C 31.5 °F /  -0.3 °C 30in /  1016.2hPa ONO 11.8mph /  19km/h 21mph /  33.8km/h 37% 0in /  0.0mm
16:59 57.6 °F /  14.2 °C 31.6 °F /  -0.2 °C 30in /  1016.2hPa NO 11.4mph /  18.4km/h 21mph /  33.8km/h 37.2% 0in /  0.0mm
17:04 57.4 °F /  14.1 °C 31.3 °F /  -0.4 °C 30in /  1016.4hPa ONO 11.2mph /  18km/h 22.5mph /  36.2km/h 37% 0in /  0.0mm
17:09 57.4 °F /  14.1 °C 31.6 °F /  -0.2 °C 30in /  1016.4hPa ONO 11.6mph /  18.6km/h 23mph /  37km/h 37.4% 0in /  0.0mm
17:14 57.4 °F /  14.1 °C 31.3 °F /  -0.4 °C 30in /  1016.4hPa ONO 11.8mph /  19km/h 22mph /  35.4km/h 37.1% 0in /  0.0mm
17:19 57.4 °F /  14.1 °C 31.3 °F /  -0.4 °C 30in /  1016.4hPa ONO 11.4mph /  18.4km/h 18.5mph /  29.8km/h 37.1% 0in /  0.0mm
17:24 57.4 °F /  14.1 °C 31.3 °F /  -0.4 °C 30in /  1016.4hPa ONO 11.2mph /  18km/h 19mph /  30.6km/h 37% 0in /  0.0mm
17:29 57.4 °F /  14.1 °C 31.3 °F /  -0.4 °C 30in /  1016.4hPa ONO 10.6mph /  17.1km/h 17.3mph /  27.8km/h 37% 0in /  0.0mm
17:34 57.4 °F /  14.1 °C 31.6 °F /  -0.2 °C 30in /  1016.5hPa ONO 10.2mph /  16.4km/h 18.4mph /  29.6km/h 37.7% 0in /  0.0mm
17:39 57.2 °F /  14 °C 31.8 °F /  -0.1 °C 30in /  1016.5hPa ONO 9.3mph /  15km/h 18mph /  29km/h 38% 0in /  0.0mm
17:44 57 °F /  13.9 °C 31.6 °F /  -0.2 °C 30in /  1016.5hPa ONO 8.7mph /  14km/h 15mph /  24.1km/h 38% 0in /  0.0mm
17:49 57 °F /  13.9 °C 31.6 °F /  -0.2 °C 30in /  1016.5hPa ONO 8.6mph /  13.8km/h 16.1mph /  25.9km/h 38% 0in /  0.0mm
17:54 56.8 °F /  13.8 °C 31.6 °F /  -0.2 °C 30in /  1016.4hPa ONO 8.5mph /  13.7km/h 16mph /  25.7km/h 38.3% 0in /  0.0mm
17:59 56.7 °F /  13.7 °C 32 °F /  0 °C 30in /  1016.4hPa ONO 8.9mph /  14.4km/h 15mph /  24.1km/h 39% 0in /  0.0mm
18:04 56.7 °F /  13.7 °C 32 °F /  0 °C 30in /  1016.6hPa ONO 9.2mph /  14.8km/h 15mph /  24.1km/h 39% 0in /  0.0mm
18:09 56.5 °F /  13.6 °C 31.8 °F /  -0.1 °C 30in /  1016.6hPa ONO 8.9mph /  14.3km/h 15mph /  24.1km/h 39% 0in /  0.0mm
18:14 56.1 °F /  13.4 °C 31.6 °F /  -0.2 °C 30in /  1016.6hPa ONO 8.7mph /  14km/h 13mph /  20.9km/h 39.1% 0in /  0.0mm
18:19 56.1 °F /  13.4 °C 32 °F /  0 °C 30in /  1016.6hPa ONO 8mph /  12.9km/h 13mph /  20.9km/h 39.9% 0in /  0.0mm
18:24 55.9 °F /  13.3 °C 31.8 °F /  -0.1 °C 30in /  1016.6hPa Oeste 7.6mph /  12.2km/h 13.7mph /  22km/h 40% 0in /  0.0mm
18:29 55.8 °F /  13.2 °C 31.8 °F /  -0.1 °C 30in /  1016.6hPa Oeste 7.5mph /  12km/h 14mph /  22.5km/h 40% 0in /  0.0mm
18:34 55.6 °F /  13.1 °C 31.8 °F /  -0.1 °C 30in /  1016.7hPa Oeste 7.4mph /  11.9km/h 14mph /  22.5km/h 40.5% 0in /  0.0mm
18:39 55.4 °F /  13 °C 32 °F /  0 °C 30in /  1016.7hPa Oeste 7.1mph /  11.4km/h 17.3mph /  27.8km/h 40.8% 0in /  0.0mm
18:44 55.2 °F /  12.9 °C 32 °F /  0 °C 30in /  1016.7hPa ONO 6.9mph /  11.1km/h 17mph /  27.4km/h 41% 0in /  0.0mm
18:49 55 °F /  12.8 °C 31.8 °F /  -0.1 °C 30in /  1016.7hPa ONO 6.6mph /  10.6km/h 12mph /  19.3km/h 41% 0in /  0.0mm
18:54 54.9 °F /  12.7 °C 32 °F /  0 °C 30in /  1016.7hPa ONO 6.4mph /  10.3km/h 10mph /  16.1km/h 41.6% 0in /  0.0mm
18:59 54.7 °F /  12.6 °C 32 °F /  0 °C 30in /  1016.7hPa ONO 6.3mph /  10.1km/h 10.2mph /  16.4km/h 42% 0in /  0.0mm
19:04 54.3 °F /  12.4 °C 31.6 °F /  -0.2 °C 30in /  1016.9hPa ONO 6.2mph /  10km/h 10.4mph /  16.7km/h 42% 0in /  0.0mm
19:09 54.1 °F /  12.3 °C 32 °F /  0 °C 30in /  1016.9hPa ONO 6mph /  9.7km/h 10mph /  16.1km/h 42.7% 0in /  0.0mm
19:14 54.1 °F /  12.3 °C 32.2 °F /  0.1 °C 30in /  1016.9hPa ONO 5.9mph /  9.5km/h 9.2mph /  14.8km/h 43% 0in /  0.0mm
19:19 54 °F /  12.2 °C 32 °F /  0 °C 30in /  1016.9hPa Oeste 5.6mph /  9km/h 8.5mph /  13.7km/h 43% 0in /  0.0mm
19:24 53.8 °F /  12.1 °C 32 °F /  0 °C 30in /  1016.9hPa Oeste 5.4mph /  8.7km/h 9mph /  14.5km/h 43.2% 0in /  0.0mm
19:29 53.6 °F /  12 °C 32.2 °F /  0.1 °C 30in /  1016.9hPa OSO 4.8mph /  7.7km/h 8mph /  12.9km/h 44% 0in /  0.0mm
19:34 53.4 °F /  11.9 °C 32 °F /  0 °C 30in /  1017.1hPa OSO 4.3mph /  6.9km/h 6mph /  9.7km/h 44% 0in /  0.0mm
19:39 53.2 °F /  11.8 °C 32 °F /  0 °C 30in /  1017.1hPa SO 3.9mph /  6.3km/h 8.1mph /  13km/h 44% 0in /  0.0mm
19:44 53.4 °F /  11.9 °C 32 °F /  0 °C 30in /  1017.1hPa SO 3.6mph /  5.8km/h 8.7mph /  14km/h 43.9% 0in /  0.0mm
19:49 53.4 °F /  11.9 °C 31.6 °F /  -0.2 °C 30in /  1017.2hPa SO 4.9mph /  7.9km/h 9.2mph /  14.8km/h 43.2% 0in /  0.0mm
19:54 53.4 °F /  11.9 °C 31.5 °F /  -0.3 °C 30in /  1017.2hPa SO 5.9mph /  9.5km/h 10.4mph /  16.7km/h 43% 0in /  0.0mm
19:59 53.4 °F /  11.9 °C 31.5 °F /  -0.3 °C 30in /  1017.2hPa SO 5.6mph /  9km/h 10mph /  16.1km/h 43.1% 0in /  0.0mm
20:04 53.2 °F /  11.8 °C 31.3 °F /  -0.4 °C 30in /  1017.3hPa OSO 5.4mph /  8.7km/h 10mph /  16.1km/h 43% 0in /  0.0mm
20:09 53.2 °F /  11.8 °C 31.8 °F /  -0.1 °C 30in /  1017.3hPa SO 5.3mph /  8.5km/h 9mph /  14.5km/h 43.9% 0in /  0.0mm
20:14 53.1 °F /  11.7 °C 31.6 °F /  -0.2 °C 30in /  1017.3hPa OSO 5.2mph /  8.4km/h 9.7mph /  15.6km/h 44% 0in /  0.0mm
20:19 52.7 °F /  11.5 °C 31.5 °F /  -0.3 °C 30in /  1017.4hPa OSO 5.2mph /  8.4km/h 10mph /  16.1km/h 44% 0in /  0.0mm
20:24 52.5 °F /  11.4 °C 31.5 °F /  -0.3 °C 30in /  1017.4hPa OSO 5.2mph /  8.4km/h 9mph /  14.5km/h 44.6% 0in /  0.0mm
20:29 52.3 °F /  11.3 °C 31.6 °F /  -0.2 °C 30in /  1017.4hPa SO 5.2mph /  8.4km/h 10.4mph /  16.7km/h 45% 0in /  0.0mm
20:34 52.2 °F /  11.2 °C 31.5 °F /  -0.3 °C 30.1in /  1017.5hPa OSO 5.2mph /  8.4km/h 10mph /  16.1km/h 45% 0in /  0.0mm
20:39 52.2 °F /  11.2 °C 31.6 °F /  -0.2 °C 30.1in /  1017.5hPa SO 5.9mph /  9.5km/h 10.7mph /  17.2km/h 45.5% 0in /  0.0mm
20:44 52 °F /  11.1 °C 31.8 °F /  -0.1 °C 30.1in /  1017.5hPa SO 6.4mph /  10.3km/h 11mph /  17.7km/h 46% 0in /  0.0mm
20:49 52 °F /  11.1 °C 31.8 °F /  -0.1 °C 30.1in /  1017.5hPa SO 6.1mph /  9.8km/h 10.4mph /  16.7km/h 46% 0in /  0.0mm
20:54 51.8 °F /  11 °C 31.6 °F /  -0.2 °C 30.1in /  1017.5hPa SSO 5.9mph /  9.5km/h 9.2mph /  14.8km/h 46% 0in /  0.0mm
20:59 51.8 °F /  11 °C 31.6 °F /  -0.2 °C 30.1in /  1017.5hPa SSO 5.5mph /  8.8km/h 9.2mph /  14.8km/h 46% 0in /  0.0mm
21:04 51.6 °F /  10.9 °C 32 °F /  0 °C 30.1in /  1017.6hPa SSO 5.2mph /  8.4km/h 9mph /  14.5km/h 47% 0in /  0.0mm
21:09 51.4 °F /  10.8 °C 32.2 °F /  0.1 °C 30.1in /  1017.6hPa SSO 3.9mph /  6.3km/h 6mph /  9.7km/h 47.7% 0in /  0.0mm
21:14 50.9 °F /  10.5 °C 32 °F /  0 °C 30.1in /  1017.6hPa Sur 3.1mph /  5km/h 6.2mph /  10km/h 48.1% 0in /  0.0mm
21:19 50.5 °F /  10.3 °C 32 °F /  0 °C 30.1in /  1017.8hPa SSO 3.4mph /  5.5km/h 6.9mph /  11.1km/h 49% 0in /  0.0mm
21:24 50.2 °F /  10.1 °C 31.8 °F /  -0.1 °C 30.1in /  1017.8hPa Sur 3.6mph /  5.8km/h 7mph /  11.3km/h 49% 0in /  0.0mm
21:29 50.2 °F /  10.1 °C 31.8 °F /  -0.1 °C 30.1in /  1017.8hPa SSO 3.6mph /  5.8km/h 7mph /  11.3km/h 49.2% 0in /  0.0mm
21:34 50 °F /  10 °C 31.6 °F /  -0.2 °C 30.1in /  1017.8hPa SSO 3.6mph /  5.8km/h 6mph /  9.7km/h 49.2% 0in /  0.0mm
21:39 50 °F /  10 °C 31.6 °F /  -0.2 °C 30.1in /  1017.8hPa SO 3.6mph /  5.8km/h 5.2mph /  8.4km/h 49% 0in /  0.0mm
21:44 50 °F /  10 °C 31.6 °F /  -0.2 °C 30.1in /  1017.8hPa SSO 3.6mph /  5.8km/h 5.8mph /  9.3km/h 49% 0in /  0.0mm
21:49 50.2 °F /  10.1 °C 31.6 °F /  -0.2 °C 30.1in /  1017.9hPa OSO 3.3mph /  5.3km/h 6mph /  9.7km/h 48.9% 0in /  0.0mm
21:54 50.2 °F /  10.1 °C 31.3 °F /  -0.4 °C 30.1in /  1017.9hPa OSO 3.1mph /  5km/h 7.4mph /  11.9km/h 48.2% 0in /  0.0mm
21:59 50.4 °F /  10.2 °C 30.7 °F /  -0.7 °C 30.1in /  1017.9hPa Oeste 3mph /  4.8km/h 9.2mph /  14.8km/h 46.6% 0in /  0.0mm
22:04 50.5 °F /  10.3 °C 30.4 °F /  -0.9 °C 30.1in /  1018.0hPa Oeste 2.9mph /  4.6km/h 9.7mph /  15.6km/h 45.9% 0in /  0.0mm
22:09 50.7 °F /  10.4 °C 30.2 °F /  -1 °C 30.1in /  1018.0hPa Oeste 4.4mph /  7.1km/h 10mph /  16.1km/h 45% 0in /  0.0mm
22:14 50.9 °F /  10.5 °C 30.2 °F /  -1 °C 30.1in /  1018.0hPa ONO 5.4mph /  8.7km/h 9.7mph /  15.6km/h 44.6% 0in /  0.0mm
22:19 51.1 °F /  10.6 °C 29.8 °F /  -1.2 °C 30.1in /  1018.0hPa ONO 5.4mph /  8.7km/h 10mph /  16.1km/h 44% 0in /  0.0mm
22:24 51.1 °F /  10.6 °C 29.8 °F /  -1.2 °C 30.1in /  1018.0hPa ONO 5.4mph /  8.7km/h 10.4mph /  16.7km/h 44% 0in /  0.0mm
22:29 50.9 °F /  10.5 °C 29.7 °F /  -1.3 °C 30.1in /  1018.0hPa Oeste 5.4mph /  8.7km/h 10mph /  16.1km/h 44% 0in /  0.0mm
22:34 50.7 °F /  10.4 °C 29.8 °F /  -1.2 °C 30.1in /  1018.0hPa Oeste 5.4mph /  8.7km/h 8mph /  12.9km/h 44.4% 0in /  0.0mm
22:39 50.5 °F /  10.3 °C 30 °F /  -1.1 °C 30.1in /  1018.0hPa Oeste 5.3mph /  8.5km/h 10.7mph /  17.2km/h 45% 0in /  0.0mm
22:44 50.4 °F /  10.2 °C 29.8 °F /  -1.2 °C 30.1in /  1018.0hPa Oeste 5.2mph /  8.4km/h 11mph /  17.7km/h 45% 0in /  0.0mm
22:49 50.4 °F /  10.2 °C 29.8 °F /  -1.2 °C 30.1in /  1018.1hPa Oeste 5.3mph /  8.6km/h 10.7mph /  17.2km/h 45% 0in /  0.0mm
22:54 50.2 °F /  10.1 °C 29.7 °F /  -1.3 °C 30.1in /  1018.1hPa OSO 5.4mph /  8.7km/h 11mph /  17.7km/h 45% 0in /  0.0mm
22:59 50.2 °F /  10.1 °C 29.5 °F /  -1.4 °C 30.1in /  1018.1hPa Oeste 5.9mph /  9.5km/h 15mph /  24.1km/h 45% 0in /  0.0mm
23:04 49.8 °F /  9.9 °C 29.3 °F /  -1.5 °C 30.1in /  1018.2hPa Oeste 6.2mph /  10km/h 15mph /  24.1km/h 45% 0in /  0.0mm
23:09 49.6 °F /  9.8 °C 29.3 °F /  -1.5 °C 30.1in /  1018.2hPa Oeste 5.6mph /  9km/h 8.5mph /  13.7km/h 45.1% 0in /  0.0mm
23:14 49.6 °F /  9.8 °C 29.1 °F /  -1.6 °C 30.1in /  1018.2hPa Oeste 5.2mph /  8.4km/h 13.5mph /  21.7km/h 45.2% 0in /  0.0mm
23:19 49.5 °F /  9.7 °C 29.3 °F /  -1.5 °C 30.1in /  1018.3hPa ONO 5.9mph /  9.5km/h 13mph /  20.9km/h 45.6% 0in /  0.0mm
23:24 49.5 °F /  9.7 °C 29.5 °F /  -1.4 °C 30.1in /  1018.3hPa Oeste 6.4mph /  10.3km/h 12mph /  19.3km/h 46% 0in /  0.0mm
23:29 49.5 °F /  9.7 °C 29.3 °F /  -1.5 °C 30.1in /  1018.3hPa ONO 6.1mph /  9.8km/h 11.5mph /  18.5km/h 45.7% 0in /  0.0mm
23:34 49.5 °F /  9.7 °C 28.9 °F /  -1.7 °C 30.1in /  1018.4hPa Oeste 5.9mph /  9.5km/h 15mph /  24.1km/h 45% 0in /  0.0mm
23:39 49.5 °F /  9.7 °C 29.1 °F /  -1.6 °C 30.1in /  1018.4hPa Oeste 6.5mph /  10.4km/h 15mph /  24.1km/h 45.4% 0in /  0.0mm
23:44 49.5 °F /  9.7 °C 29.5 °F /  -1.4 °C 30.1in /  1018.4hPa Oeste 6.9mph /  11.1km/h 13mph /  20.9km/h 46% 0in /  0.0mm
23:49 49.1 °F /  9.5 °C 29.3 °F /  -1.5 °C 30.1in /  1018.5hPa Oeste 6.3mph /  10.1km/h 12mph /  19.3km/h 46% 0in /  0.0mm
23:54 48.9 °F /  9.4 °C 28.9 °F /  -1.7 °C 30.1in /  1018.5hPa Oeste 5.9mph /  9.5km/h 12mph /  19.3km/h 46% 0in /  0.0mm
23:59 48.9 °F /  9.4 °C 29.1 °F /  -1.6 °C 30.1in /  1018.5hPa Oeste 5.9mph /  9.5km/h 10.7mph /  17.2km/h 46.2% 0in /  0.0mm
Murcia-Puente Tocinos, Espa?a
Compliments of Weather Underground - 3.25 mb

La estación de MeteoMurcia.com, publica sus datos en los siguientes proyectos:

Weather Underground PWS IMURCIAP2 Meteoclimatic www.awekas.at

W3Counter
Web Analytics